Flight Track Log - Related Links

Times and Time Zones

All times are in EDT time to prevent confusion due to time zone crossing. See the N885WT flight status page for this flight to view local times or setup timezone preferences in your user account.


Time Position Orientation Groundspeed Altitude Reporting Facility
EDT Latitude Longitude Course Direction KTS MPH feet Rate Location/Type
Mon 05:10:00 PM 37.0916 -122.5500 180° South  Level FlightAware Approximate
Mon 05:11:00 PM 36.9819 -122.5613 188° South  Level FlightAware Approximate
Mon 05:12:00 PM 36.8861 -122.5382 169° South  Level FlightAware Approximate
Mon 05:13:00 PM 36.7770 -122.5184 172° South  Level FlightAware Approximate
Mon 05:14:00 PM 36.6693 -122.4894 170° South  Level FlightAware Approximate
Mon 05:15:00 PM 36.5608 -122.4647 165° South  Level FlightAware Approximate
Mon 05:16:00 PM 36.4542 -122.4292 165° South  Level FlightAware Approximate
Mon 05:17:00 PM 36.3680 -122.3517 133° Southeast  Level FlightAware Approximate
Mon 05:18:00 PM 36.2937 -122.2505 131° Southeast  Level FlightAware Approximate
Mon 05:19:00 PM 36.2214 -122.1472 131° Southeast  Level FlightAware Approximate
Mon 05:20:00 PM 36.1506 -122.0424 129° Southeast  Level FlightAware Approximate
Mon 05:21:00 PM 36.0804 -121.9370 130° Southeast  Level FlightAware Approximate
Mon 05:22:00 PM 36.0095 -121.8325 131° Southeast  Level FlightAware Approximate
Mon 05:23:00 PM 35.9373 -121.7294 131° Southeast  Level FlightAware Approximate
Mon 05:24:00 PM 35.8653 -121.6263 131° Southeast  Level FlightAware Approximate
Mon 05:25:00 PM 35.7932 -121.5232 131° Southeast  Level FlightAware Approximate
Mon 05:26:00 PM 35.7211 -121.4203 131° Southeast  Level FlightAware Approximate
Mon 05:27:00 PM 35.6489 -121.3176 131° Southeast  Level FlightAware Approximate
Mon 05:28:00 PM 35.5766 -121.2151 131° Southeast  Level FlightAware Approximate
Mon 05:29:00 PM 35.5042 -121.1128 131° Southeast  Level FlightAware Approximate
Mon 05:30:00 PM 35.4352 -121.0072 125° Southeast  Level FlightAware Approximate
Mon 05:31:00 PM 35.3723 -120.8961 125° Southeast  Level FlightAware Approximate
Mon 05:32:00 PM 35.3092 -120.7852 125° Southeast  Level FlightAware Approximate
Mon 05:33:00 PM 35.2460 -120.6744 125° Southeast  Level FlightAware Approximate
Mon 05:34:00 PM 35.1828 -120.5638 125° Southeast  Level FlightAware Approximate
Mon 05:35:00 PM 35.1194 -120.4533 125° Southeast  Level FlightAware Approximate
Mon 05:36:00 PM 35.0559 -120.3430 125° Southeast  Level FlightAware Approximate
Mon 05:37:00 PM 34.9924 -120.2329 125° Southeast  Level FlightAware Approximate
Mon 05:38:00 PM 34.9287 -120.1230 125° Southeast  Level FlightAware Approximate
Mon 05:39:00 PM 34.8649 -120.0133 125° Southeast  Level FlightAware Approximate
Mon 05:40:00 PM 34.8010 -119.9037 125° Southeast  Level FlightAware Approximate
Mon 05:41:00 PM 34.7371 -119.7943 125° Southeast  Level FlightAware Approximate
Mon 05:42:00 PM 34.6730 -119.6850 125° Southeast  Level FlightAware Approximate
Mon 05:43:00 PM 34.6089 -119.5759 126° Southeast  Level FlightAware Approximate
Mon 05:44:00 PM 34.5446 -119.4670 126° Southeast  Level FlightAware Approximate
Mon 05:45:00 PM 34.4803 -119.3583 126° Southeast  Level FlightAware Approximate
Mon 05:46:00 PM 34.4158 -119.2497 126° Southeast  Level FlightAware Approximate
Mon 05:47:00 PM 34.3512 -119.1413 126° Southeast  Level FlightAware Approximate
Mon 05:48:00 PM 34.2888 -119.0313 126° Southeast  Level FlightAware Approximate
Mon 05:49:00 PM 34.2240 -118.9233 126° Southeast  Level FlightAware Approximate
Mon 05:50:00 PM 34.1618 -118.8132 123° Southeast  Level FlightAware Approximate
Mon 05:51:00 PM 34.1011 -118.7019 123° Southeast  Level FlightAware Approximate
Mon 05:52:00 PM 34.0338 -118.6013 112° Southeast  Level FlightAware Approximate
Mon 05:53:00 PM 33.9694 -118.4933 126° Southeast  Level FlightAware Approximate
Mon 05:54:00 PM 33.8957 -118.3957 140° Southeast  Level FlightAware Approximate
Mon 05:54:11 PM 37.6333 -122.4000 132° Southeast 185 213 1,000  Level Northern Cal TRACON
Mon 05:55:00 PM 33.8202 -118.2991 132° Southeast  Level FlightAware Approximate
Mon 05:55:17 PM 37.6500 -122.4833 284° West 235 270 4,400  Level Northern Cal TRACON
Mon 05:56:00 PM 33.7463 -118.2006 132° Southeast  Level FlightAware Approximate
Mon 05:56:17 PM 37.6000 -122.5333 218° Southwest 291 335 8,300  Level Northern Cal TRACON
Mon 05:57:00 PM 33.6739 -118.1006 134° Southeast  Level FlightAware Approximate
Mon 05:57:12 PM 37.5167 -122.5667 198° South 314 361 11,100  Level Northern Cal TRACON
Mon 05:58:00 PM 33.5975 -118.0051 134° Southeast  Level FlightAware Approximate
Mon 05:58:18 PM 37.4167 -122.5667 180° South 371 427 14,200  Level Northern Cal TRACON
Mon 05:58:48 PM 37.3706 -122.5622 176° South 370 426 15,300 2,703 Climbing Oakland Center
Mon 05:59:00 PM 33.5226 -117.9079 132° Southeast  Level FlightAware Approximate
Mon 05:59:49 PM 37.2594 -122.5669 182° South 390 449 18,300  Level Oakland Center
Mon 06:00:50 PM 37.1431 -122.5714 182° South 408 470 21,000 2,585 Climbing Oakland Center
Mon 06:01:52 PM 37.0214 -122.5475 171° South 450 518 23,600 2,634 Climbing Oakland Center
Mon 06:02:53 PM 36.8986 -122.4322 143° Southeast 465 535 26,400 2,508 Climbing Oakland Center
Mon 06:03:54 PM 36.7928 -122.3300 142° Southeast 478 550 28,700 2,293 Climbing Oakland Center
Mon 06:04:56 PM 36.6836 -122.2239 142° Southeast 496 571 31,100 2,488 Climbing Oakland Center
Mon 06:05:57 PM 36.5739 -122.1200 143° Southeast 497 572 33,800 2,262 Climbing Oakland Center
Mon 06:06:58 PM 36.4656 -122.0131 142° Southeast 499 574 35,700 1,610 Climbing Oakland Center
Mon 06:08:00 PM 36.3703 -121.8867 133° Southeast 500 575 37,100 1,463 Climbing Oakland Center
Mon 06:09:01 PM 36.2831 -121.7547 129° Southeast 503 579 38,700 1,525 Climbing Oakland Center
Mon 06:10:02 PM 36.1947 -121.6258 130° Southeast 496 571 40,200 1,122 Climbing Oakland Center
Mon 06:11:04 PM 36.0892 -121.4722 130° Southeast 489 563 41,000 390 Climbing Oakland Center
Mon 06:12:05 PM 36.0014 -121.3442 130° Southeast 490 564 41,000  Level Oakland Center
Mon 06:13:06 PM 35.9114 -121.2094 129° Southeast 505 581 41,000  Level Oakland Center
Mon 06:14:07 PM 35.8194 -121.0758 130° Southeast 511 588 41,000  Level Oakland Center
Mon 06:15:09 PM 35.7283 -120.9436 130° Southeast 507 583 41,000  Level Oakland Center
Mon 06:16:10 PM 35.6369 -120.8125 131° Southeast 506 582 41,000  Level Oakland Center
Mon 06:17:11 PM 35.5469 -120.6806 130° Southeast 507 583 41,000  Level Oakland Center
Mon 06:18:36 PM 35.4117 -120.4889 131° Southeast 512 589 41,000  Level Los Angeles Center
Mon 06:19:38 PM 35.3203 -120.3542 130° Southeast 513 590 41,000  Level Los Angeles Center
Mon 06:20:40 PM 35.2281 -120.2228 131° Southeast 507 583 41,000  Level Los Angeles Center
Mon 06:21:42 PM 35.1328 -120.0878 131° Southeast 502 578 41,000  Level Los Angeles Center
Mon 06:22:44 PM 35.0422 -119.9586 131° Southeast 502 578 41,000  Level Los Angeles Center
Mon 06:23:46 PM 34.9344 -119.8058 131° Southeast 497 572 41,000  Level Los Angeles Center
Mon 06:24:47 PM 34.8433 -119.6792 131° Southeast 497 572 41,000  Level Los Angeles Center
Mon 06:25:49 PM 34.7531 -119.5525 131° Southeast 497 572 41,000  Level Los Angeles Center
Mon 06:26:51 PM 34.6617 -119.4275 132° Southeast 495 570 41,000  Level Los Angeles Center
Mon 06:27:53 PM 34.5614 -119.2906 132° Southeast 497 572 41,000  Level Los Angeles Center
Mon 06:28:55 PM 34.4711 -119.1644 131° Southeast 497 572 41,000  Level Los Angeles Center
Mon 06:29:57 PM 34.3783 -119.0400 132° Southeast 498 573 41,000  Level Los Angeles Center
Mon 06:30:59 PM 34.2878 -118.9142 131° Southeast 497 572 41,000  Level Los Angeles Center
Mon 06:32:01 PM 34.1944 -118.7892 132° Southeast 501 577 41,000 -968 Level Los Angeles Center
Mon 06:33:03 PM 34.1025 -118.6622 131° Southeast 502 578 39,000 -1,951 Descending Los Angeles Center
Mon 06:34:04 PM 33.9925 -118.5136 132° Southeast 496 571 37,000 -1,463 Descending Los Angeles Center
Mon 06:35:06 PM 33.8978 -118.3850 132° Southeast 506 582 36,000 -968 Descending Los Angeles Center
Mon 06:36:08 PM 33.7947 -118.2594 135° Southeast 510 587 35,000 -1,548 Descending Los Angeles Center
Mon 06:37:10 PM 33.6978 -118.1303 132° Southeast 505 581 32,800 -2,382 Descending Los Angeles Center
Mon 06:38:24 PM 33.6017 -118.0094 134° Southeast 500 575 29,600 -3,088 Descending Los Angeles Center
Mon 06:39:26 PM 33.4881 -117.8656 133° Southeast 492 566 25,800 -2,956 Descending Los Angeles Center
Mon 06:40:40 PM 33.4006 -117.7556 134° Southeast 460 529 22,900 -2,803 Descending Los Angeles Center
Mon 06:41:43 PM 33.2981 -117.6272 134° Southeast 446 513 19,400 -3,000 Descending Los Angeles Center
Mon 06:42:44 PM 33.2086 -117.5339 139° Southeast 421 484 16,700 -2,769 Descending Los Angeles Center
Mon 06:44:45 PM 33.0167 -117.3667 144° Southeast 377 434 11,000 -2,439 Descending Southern California TRACON
Mon 06:45:51 PM 32.9333 -117.3000 146° Southeast 308 354 9,100 -1,952 Descending Southern California TRACON
Mon 06:46:51 PM 32.8667 -117.2500 148° Southeast 302 348 6,900 -2,050 Descending Southern California TRACON
Mon 06:47:51 PM 32.8000 -117.1833 140° Southeast 286 329 5,000 -950 Descending Southern California TRACON
Mon 06:48:51 PM 32.7833 -117.1167 107° East 234 269 5,000  Level Southern California TRACON
Mon 06:49:51 PM 32.7667 -117.0333 103° East 232 267 5,000  Level Southern California TRACON
Mon 06:50:51 PM 32.7667 -116.9667 90° East 233 268 5,000 -350 Level Southern California TRACON
Mon 06:51:51 PM 32.7000 -116.9333 157° South 219 252 4,300 -895 Descending Southern California TRACON
Mon 06:52:45 PM 32.6833 -116.9833 248° West 211 243 3,300 -947 Descending Southern California TRACON
Mon 06:53:45 PM 32.7000 -117.0333 292° West 165 190 2,500 -714 Descending Southern California TRACON
Mon 06:54:51 PM 32.7167 -117.0833 292° West 161 185 1,800 -694 Descending Southern California TRACON
Mon 06:55:46 PM 32.7167 -117.1333 270° West 129 148 1,100 -650 Descending Southern California TRACON
Mon 06:56:51 PM 32.7333 -117.1667 301° West 120 138 500 -554 Descending Southern California TRACON
Mon 06:58:00 PM 32.7333 -117.1833 235° Southwest  Level FlightAware Approximate
Mon 07:05:00 PM 32.7336 -117.1897 235° Southwest  Level Estimated
Mon 07:06:00 PM 32.7333 -117.1833 235° Southwest  Level FlightAware Approximate
Mon 07:07:00 PM 32.7336 -117.1897 235° Southwest  Level Estimated
Mon 07:08:00 PM 32.7333 -117.1833 235° Southwest  Level FlightAware Approximate
Mon 07:09:00 PM 32.7336 -117.1897 235° Southwest  Level Estimated
Mon 07:10:00 PM 32.7333 -117.1833 235° Southwest  Level FlightAware Approximate
Mon 07:11:00 PM 32.7336 -117.1897 235° Southwest  Level Estimated
Mon 07:12:00 PM 32.7333 -117.1833 235° Southwest  Level FlightAware Approximate
Mon 07:13:00 PM 32.7336 -117.1897 235° Southwest  Level Estimated

Login

Don't have an account? Register now (free) for customized features, flight alerts, and more!